KCAD/CAD METAR and TAF weather

Enter ICAO airport designator
Station Type Date Time Source
KCAD METAR 2020/03/31 13:16 UTC NOAA

KCAD 311316Z AUTO 03004KT 10SM OVC006 00/M01 A3006 RMK AO2


Station Type Date Time Source
KCAD Decoded METAR 2020/03/31 13:16 UTC NOAA

Cadillac / Wexford County, MI, United States (KCAD) 44-17N 085-25W
Mar 31, 2020 - 09:16 AM EDT / 2020.03.31 1316 UTC
Wind: from the NNE (030 degrees) at 5 MPH (4 KT):0
Visibility: 10 mile(s):0
Sky conditions: overcast
Temperature: 32 F (0 C)
Windchill: 26 F (-3 C):1
Dew Point: 30 F (-1 C)
Relative Humidity: 92%
Pressure (altimeter): 30.06 in. Hg (1017 hPa)
ob: KCAD 311316Z AUTO 03004KT 10SM OVC006 00/M01 A3006 RMK AO2
cycle: 13

Station Type Date Time Source
KCAD TAF UTC NOAA

Error!

Example: see airport list